createdAt,value
2018-02-10T00:01:06.815Z,98358.88
2018-02-10T00:03:36.646Z,98360.73
2018-02-10T00:06:06.495Z,98355.94
2018-02-10T00:08:36.076Z,98364.91
2018-02-10T00:11:05.936Z,98361.33
2018-02-10T00:13:35.749Z,98359.33
2018-02-10T00:16:05.587Z,98367.09
2018-02-10T00:18:35.433Z,98363.51
2018-02-10T00:21:05.261Z,98371.23
2018-02-10T00:23:35.082Z,98371.05
2018-02-10T00:26:04.950Z,98372.55
2018-02-10T00:28:34.768Z,98374.78
2018-02-10T00:31:04.632Z,98375.70
2018-02-10T00:33:34.522Z,98340.23
2018-02-10T00:36:04.421Z,98375.13
2018-02-10T00:38:34.274Z,98371.45
2018-02-10T00:41:04.128Z,98380.64
2018-02-10T00:43:34.016Z,98383.48
2018-02-10T00:46:03.629Z,98388.39
2018-02-10T00:48:33.722Z,98383.89
2018-02-10T00:51:03.568Z,98385.11
2018-02-10T00:53:33.391Z,98384.73
2018-02-10T00:56:03.204Z,98380.42
2018-02-10T00:58:32.852Z,98383.36
2018-02-10T01:01:02.697Z,98386.42
2018-02-10T01:03:32.520Z,98387.17
2018-02-10T01:06:02.345Z,98385.83
2018-02-10T01:08:32.165Z,98381.62
2018-02-10T01:11:02.028Z,98385.09
2018-02-10T01:13:31.892Z,98381.75
2018-02-10T01:16:01.730Z,98384.41
2018-02-10T01:18:31.379Z,98384.33
2018-02-10T01:21:01.209Z,98382.77
2018-02-10T01:23:31.391Z,98375.48
2018-02-10T01:26:01.248Z,98387.42
2018-02-10T01:28:31.140Z,98379.78
2018-02-10T01:31:01.029Z,98384.17
2018-02-10T01:33:30.872Z,98388.98
2018-02-10T01:36:00.761Z,98386.42
2018-02-10T01:38:30.713Z,98385.31
2018-02-10T01:41:01.344Z,98384.16
2018-02-10T01:43:32.156Z,98388.41
2018-02-10T01:46:02.004Z,98392.51
2018-02-10T01:48:31.878Z,98387.20
2018-02-10T01:51:01.714Z,98387.48
2018-02-10T01:53:31.550Z,98392.93
2018-02-10T01:56:01.362Z,98394.86
2018-02-10T01:58:31.430Z,98387.88
2018-02-10T02:01:01.256Z,98389.73
2018-02-10T02:03:30.856Z,98391.05
2018-02-10T02:06:00.712Z,98397.56
2018-02-10T02:08:30.639Z,98392.75
2018-02-10T02:11:00.454Z,98397.47
2018-02-10T02:13:30.242Z,98395.45
2018-02-10T02:16:00.848Z,98398.53
2018-02-10T02:18:30.698Z,98394.56
2018-02-10T02:21:00.673Z,98396.62
2018-02-10T02:23:30.523Z,98395.65
2018-02-10T02:26:00.353Z,98405.20
2018-02-10T02:28:30.289Z,98400.29
2018-02-10T02:31:00.148Z,98399.36
2018-02-10T02:33:29.989Z,98395.04
2018-02-10T02:35:59.950Z,98395.55
2018-02-10T02:38:29.832Z,98393.56
2018-02-10T02:40:59.709Z,98401.98
2018-02-10T02:43:29.529Z,98400.73
2018-02-10T02:45:59.359Z,98408.30
2018-02-10T02:48:29.407Z,98402.92
2018-02-10T02:50:59.221Z,98407.09
2018-02-10T02:53:29.076Z,98408.70
2018-02-10T02:55:58.933Z,98404.12
2018-02-10T02:58:28.776Z,98415.13
2018-02-10T03:00:58.627Z,98408.78
2018-02-10T03:03:28.473Z,98415.77
2018-02-10T03:05:58.325Z,98413.60
2018-02-10T03:08:28.154Z,98412.09
2018-02-10T03:10:58.161Z,98421.61
2018-02-10T03:13:28.064Z,98415.28
2018-02-10T03:15:57.958Z,98423.56
2018-02-10T03:18:27.803Z,98417.00
2018-02-10T03:20:57.653Z,98418.48
2018-02-10T03:23:27.601Z,98418.30
2018-02-10T03:25:57.451Z,98418.88
2018-02-10T03:28:28.719Z,98426.19
2018-02-10T03:30:58.843Z,98423.99
2018-02-10T03:33:28.687Z,98427.51
2018-02-10T03:35:58.556Z,98425.97
2018-02-10T03:38:28.397Z,98430.61
2018-02-10T03:40:58.239Z,98431.47
2018-02-10T03:43:27.708Z,98431.69
2018-02-10T03:45:57.300Z,98435.12
2018-02-10T03:48:27.137Z,98431.48
2018-02-10T03:50:57.028Z,98436.91
2018-02-10T03:53:26.855Z,98435.72
2018-02-10T03:55:56.772Z,98429.69
2018-02-10T03:58:26.691Z,98443.17
2018-02-10T04:00:56.609Z,98435.38
2018-02-10T04:03:26.505Z,98430.89
2018-02-10T04:05:56.362Z,98433.64
2018-02-10T04:08:26.228Z,98436.13
2018-02-10T04:10:56.075Z,98431.65
2018-02-10T04:13:25.901Z,98434.78
2018-02-10T04:15:55.995Z,98434.88
2018-02-10T04:18:25.814Z,98436.09
2018-02-10T04:20:55.676Z,98434.60
2018-02-10T04:23:25.508Z,98434.14
2018-02-10T04:25:55.380Z,98430.06
2018-02-10T04:28:25.218Z,98431.44
2018-02-10T04:30:55.086Z,98431.92
2018-02-10T04:33:24.909Z,98435.06
2018-02-10T04:35:54.724Z,98439.78
2018-02-10T04:38:24.574Z,98443.12
2018-02-10T04:40:54.386Z,98443.16
2018-02-10T04:43:24.221Z,98447.11
2018-02-10T04:45:54.052Z,98446.87
2018-02-10T04:48:23.929Z,98452.77
2018-02-10T04:50:53.912Z,98455.42
2018-02-10T04:53:23.734Z,98461.25
2018-02-10T04:55:53.571Z,98459.56
2018-02-10T04:58:23.398Z,98461.94
2018-02-10T05:00:53.335Z,98466.59
2018-02-10T05:03:23.176Z,98464.80
2018-02-10T05:05:53.027Z,98459.11
2018-02-10T05:08:22.850Z,98465.20
2018-02-10T05:10:52.687Z,98461.77
2018-02-10T05:13:22.536Z,98466.31
2018-02-10T05:15:52.609Z,98470.20
2018-02-10T05:18:22.513Z,98466.09
2018-02-10T05:20:52.369Z,98471.43
2018-02-10T05:23:22.272Z,98472.45
2018-02-10T05:25:52.306Z,98472.65
2018-02-10T05:28:22.120Z,98482.64
2018-02-10T05:30:52.181Z,98480.02
2018-02-10T05:33:22.132Z,98485.25
2018-02-10T05:35:51.956Z,98491.08
2018-02-10T05:38:21.794Z,98489.25
2018-02-10T05:40:51.707Z,98494.95
2018-02-10T05:43:21.537Z,98499.59
2018-02-10T05:45:51.452Z,98493.48
2018-02-10T05:48:21.280Z,98495.09
2018-02-10T05:50:51.218Z,98503.59
2018-02-10T05:53:21.060Z,98500.80
2018-02-10T05:55:50.900Z,98506.48
2018-02-10T05:58:20.770Z,98500.75
2018-02-10T06:00:51.207Z,98504.59
2018-02-10T06:03:21.652Z,98506.08
2018-02-10T06:05:51.688Z,98502.92
2018-02-10T06:08:21.350Z,98501.72
2018-02-10T06:10:51.168Z,98508.06
2018-02-10T06:13:21.044Z,98507.73
2018-02-10T06:15:50.921Z,98509.17
2018-02-10T06:18:20.753Z,98509.89
2018-02-10T06:20:50.641Z,98512.30
2018-02-10T06:23:20.499Z,98509.57
2018-02-10T06:25:50.360Z,98520.80
2018-02-10T06:28:20.282Z,98524.65
2018-02-10T06:30:50.169Z,98526.73
2018-02-10T06:33:20.783Z,98521.67
2018-02-10T06:35:51.647Z,98524.77
2018-02-10T06:38:21.465Z,98526.22
2018-02-10T06:40:51.376Z,98526.73
2018-02-10T06:43:21.474Z,98530.86
2018-02-10T06:45:51.310Z,98529.41
2018-02-10T06:48:21.184Z,98529.81
2018-02-10T06:50:51.301Z,98530.94
2018-02-10T06:53:21.238Z,98534.42
2018-02-10T06:55:51.083Z,98534.77
2018-02-10T06:58:20.999Z,98541.41
2018-02-10T07:00:50.847Z,98547.30
2018-02-10T07:03:20.769Z,98543.58
2018-02-10T07:05:51.061Z,98544.03
2018-02-10T07:08:21.639Z,98542.05
2018-02-10T07:10:52.125Z,98547.73
2018-02-10T07:13:22.444Z,98548.11
2018-02-10T07:15:52.568Z,98552.56
2018-02-10T07:18:23.075Z,98555.94
2018-02-10T07:20:53.398Z,98547.93
2018-02-10T07:23:25.061Z,98549.72
2018-02-10T07:26:02.095Z,98553.22
2018-02-10T07:28:46.829Z,98548.95
2018-02-10T07:31:16.904Z,98547.91
2018-02-10T07:33:46.974Z,98552.70
2018-02-10T07:36:17.057Z,98547.55
2018-02-10T07:38:47.063Z,98541.44
2018-02-10T07:41:17.101Z,98542.71
2018-02-10T07:43:47.063Z,98541.95
2018-02-10T07:46:17.232Z,98544.67
2018-02-10T07:48:47.480Z,98542.50
2018-02-10T07:51:18.249Z,98550.08
2018-02-10T07:53:48.279Z,98552.25
2018-02-10T07:56:18.456Z,98552.48
2018-02-10T07:58:49.086Z,98552.44
2018-02-10T08:01:20.078Z,98556.19
2018-02-10T08:03:50.015Z,98555.05
2018-02-10T08:06:20.351Z,98554.94
2018-02-10T08:08:50.833Z,98549.44
2018-02-10T08:11:20.884Z,98552.08
2018-02-10T08:13:52.757Z,98557.06
2018-02-10T08:16:30.036Z,98561.70
2018-02-10T08:19:09.864Z,98564.58
2018-02-10T08:24:26.841Z,98562.74
2018-02-10T08:27:06.214Z,98552.80
2018-02-10T08:29:38.685Z,98557.64
2018-02-10T08:34:57.154Z,98558.72
2018-02-10T08:37:27.101Z,98556.46
2018-02-10T08:39:57.142Z,98562.60
2018-02-10T08:42:27.481Z,98563.41
2018-02-10T08:44:58.027Z,98564.73
2018-02-10T08:47:28.509Z,98560.73
2018-02-10T08:49:59.224Z,98568.39
2018-02-10T08:52:29.845Z,98575.69
2018-02-10T08:55:00.561Z,98575.00
2018-02-10T08:57:31.040Z,98573.09
2018-02-10T09:00:02.702Z,98570.44
2018-02-10T09:02:32.685Z,98571.56
2018-02-10T09:05:02.792Z,98577.55
2018-02-10T09:07:40.567Z,98578.42
2018-02-10T09:13:12.440Z,98574.50
2018-02-10T09:19:40.880Z,98585.60
2018-02-10T09:45:15.422Z,98587.19
2018-02-10T09:47:45.545Z,98589.09
2018-02-10T09:50:15.653Z,98593.36
2018-02-10T09:52:46.032Z,98595.42
2018-02-10T09:55:42.640Z,98587.36
2018-02-10T09:58:13.714Z,98590.70
2018-02-10T10:00:45.545Z,98593.61
2018-02-10T10:06:49.441Z,98586.70
2018-02-10T10:27:51.632Z,98580.55
2018-02-10T10:30:25.015Z,98576.88
2018-02-10T10:32:55.227Z,98583.76
2018-02-10T10:35:26.810Z,98578.91
2018-02-10T10:37:56.857Z,98580.73
2018-02-10T10:40:29.948Z,98575.86
2018-02-10T10:43:12.772Z,98577.93
2018-02-10T11:04:49.972Z,98553.25
2018-02-10T11:17:25.208Z,98552.93
2018-02-10T11:19:55.299Z,98549.83
2018-02-10T11:22:29.244Z,98554.07
2018-02-10T11:25:07.659Z,98549.08
2018-02-10T11:35:35.126Z,98545.70
2018-02-10T11:38:15.439Z,98552.47
2018-02-10T11:48:45.868Z,98549.13
2018-02-10T11:51:16.190Z,98546.50
2018-02-10T11:53:53.799Z,98548.88
2018-02-10T11:56:23.594Z,98548.95
2018-02-10T12:01:28.194Z,98541.81
2018-02-10T12:09:11.339Z,98533.68
2018-02-10T12:15:08.996Z,98537.86
2018-02-10T12:17:39.376Z,98535.09
2018-02-10T12:20:09.960Z,98540.07
2018-02-10T12:25:45.006Z,98527.95
2018-02-10T12:34:03.929Z,98521.70
2018-02-10T12:36:40.472Z,98517.92
2018-02-10T12:39:29.492Z,98511.66
2018-02-10T12:42:05.029Z,98522.42
2018-02-10T12:51:29.522Z,98530.97
2018-02-10T12:54:00.259Z,98532.80
2018-02-10T12:56:30.410Z,98529.52
2018-02-10T12:59:00.679Z,98524.63
2018-02-10T13:01:31.096Z,98515.94
2018-02-10T13:04:00.973Z,98496.04
2018-02-10T13:06:32.257Z,98507.84
2018-02-10T13:09:06.010Z,98504.78
2018-02-10T13:11:36.243Z,98504.39
2018-02-10T13:14:07.037Z,98510.85
2018-02-10T13:16:37.201Z,98509.98
2018-02-10T13:19:11.690Z,98510.08
2018-02-10T13:21:41.934Z,98506.59
2018-02-10T13:24:13.839Z,98507.14
2018-02-10T13:26:44.365Z,98505.63
2018-02-10T13:40:07.972Z,98501.16
2018-02-10T13:42:39.678Z,98499.06
2018-02-10T13:45:11.984Z,98503.02
2018-02-10T13:47:42.021Z,98495.00
2018-02-10T13:50:15.189Z,98493.89
2018-02-10T13:52:51.898Z,98497.66
2018-02-10T13:55:28.962Z,98497.66
2018-02-10T14:00:47.745Z,98501.45
2018-02-10T14:03:19.945Z,98494.95
2018-02-10T14:05:54.961Z,98490.31
2018-02-10T14:08:24.922Z,98484.37
2018-02-10T14:10:57.012Z,98488.98
2018-02-10T14:13:27.171Z,98493.39
2018-02-10T14:18:31.757Z,98485.24
2018-02-10T14:21:01.959Z,98485.13
2018-02-10T14:26:08.344Z,98496.45
2018-02-10T14:28:46.593Z,98493.73
2018-02-10T14:31:19.337Z,98496.11
2018-02-10T14:33:51.355Z,98497.23
2018-02-10T14:36:22.793Z,98497.88
2018-02-10T14:38:55.558Z,98491.44
2018-02-10T14:41:27.678Z,98495.44
2018-02-10T14:44:11.107Z,98495.97
2018-02-10T14:46:46.790Z,98494.14
2018-02-10T14:49:20.839Z,98490.23
2018-02-10T14:51:53.666Z,98498.54
2018-02-10T14:54:26.754Z,98497.14
2018-02-10T14:57:01.519Z,98491.72
2018-02-10T15:17:02.402Z,98488.63
2018-02-10T15:36:38.201Z,98488.02
2018-02-10T15:44:31.217Z,98490.87
2018-02-10T15:47:01.235Z,98485.36
2018-02-10T15:49:38.995Z,98482.48
2018-02-10T15:54:45.488Z,98488.39
2018-02-10T16:00:10.584Z,98491.78
2018-02-10T16:02:45.621Z,98492.88
2018-02-10T16:32:01.098Z,98512.66
2018-02-10T16:34:35.562Z,98512.36
2018-02-10T16:37:09.749Z,98509.69
2018-02-10T16:39:39.943Z,98509.77
2018-02-10T16:42:11.210Z,98510.17
2018-02-10T16:48:24.889Z,98510.89
2018-02-10T16:50:57.118Z,98508.11
2018-02-10T17:01:25.221Z,98514.46
2018-02-10T17:03:55.289Z,98507.91
2018-02-10T17:06:35.590Z,98507.78
2018-02-10T17:09:06.513Z,98513.55
2018-02-10T17:11:39.104Z,98509.50
2018-02-10T17:16:51.389Z,98507.92
2018-02-10T17:21:56.922Z,98510.47
2018-02-10T17:24:32.107Z,98513.81
2018-02-10T17:29:40.337Z,98512.81
2018-02-10T17:32:14.268Z,98510.22
2018-02-10T17:34:54.975Z,98516.38
2018-02-10T17:37:24.960Z,98515.34
2018-02-10T17:39:56.091Z,98517.86
2018-02-10T17:42:26.378Z,98516.45
2018-02-10T17:44:56.353Z,98520.19
2018-02-10T17:47:30.365Z,98519.89
2018-02-10T17:50:00.687Z,98521.44
2018-02-10T17:52:31.727Z,98522.59
2018-02-10T17:55:01.877Z,98528.84
2018-02-10T18:00:30.148Z,98523.97
2018-02-10T18:03:01.693Z,98518.75
2018-02-10T18:05:32.632Z,98518.50
2018-02-10T18:08:03.423Z,98512.61
2018-02-10T18:10:34.984Z,98515.09
2018-02-10T18:13:05.458Z,98510.94
2018-02-10T18:15:35.875Z,98514.92
2018-02-10T18:18:05.882Z,98516.06
2018-02-10T18:20:36.114Z,98508.21
2018-02-10T18:23:06.570Z,98512.36
2018-02-10T18:25:36.461Z,98503.77
2018-02-10T18:28:06.915Z,98510.06
2018-02-10T18:30:39.563Z,98509.27
2018-02-10T18:33:11.615Z,98508.32
2018-02-10T18:35:43.220Z,98510.50
2018-02-10T18:38:13.294Z,98505.44
2018-02-10T18:40:44.025Z,98500.38
2018-02-10T18:43:18.373Z,98504.50
2018-02-10T18:45:48.568Z,98505.98
2018-02-10T18:48:18.511Z,98500.73
2018-02-10T18:50:48.350Z,98501.25
2018-02-10T18:53:18.320Z,98496.54
2018-02-10T18:55:48.312Z,98493.00
2018-02-10T18:58:18.321Z,98507.13
2018-02-10T19:00:57.154Z,98495.64
2018-02-10T19:03:29.407Z,98494.64
2018-02-10T19:06:10.328Z,98486.34
2018-02-10T19:08:40.734Z,98490.88
2018-02-10T19:11:11.186Z,98489.92
2018-02-10T19:13:45.253Z,98484.55
2018-02-10T19:16:22.318Z,98491.75
2018-02-10T19:18:52.291Z,98486.37
2018-02-10T19:21:22.815Z,98482.02
2018-02-10T19:23:52.761Z,98479.88
2018-02-10T19:26:22.749Z,98474.59
2018-02-10T19:28:53.094Z,98475.45
2018-02-10T19:31:23.082Z,98466.84
2018-02-10T19:33:53.529Z,98464.36
2018-02-10T19:36:23.428Z,98468.59
2018-02-10T19:38:53.269Z,98471.88
2018-02-10T19:41:23.215Z,98471.86
2018-02-10T19:43:55.380Z,98468.84
2018-02-10T19:46:25.322Z,98474.05
2018-02-10T19:48:55.308Z,98473.70
2018-02-10T19:51:25.835Z,98474.16
2018-02-10T19:53:55.794Z,98478.41
2018-02-10T19:56:26.447Z,98477.58
2018-02-10T19:59:00.020Z,98485.61
2018-02-10T20:01:30.169Z,98492.86
2018-02-10T20:04:02.343Z,98483.88
2018-02-10T20:06:32.695Z,98477.20
2018-02-10T20:09:02.851Z,98483.77
2018-02-10T20:11:33.772Z,98482.77
2018-02-10T20:14:03.777Z,98481.56
2018-02-10T20:16:34.102Z,98483.11
2018-02-10T20:19:04.299Z,98476.77
2018-02-10T20:21:35.787Z,98473.42
2018-02-10T20:24:05.747Z,98476.88
2018-02-10T20:26:35.988Z,98474.90
2018-02-10T20:29:06.812Z,98475.67
2018-02-10T20:31:37.072Z,98471.36
2018-02-10T20:34:07.228Z,98469.22
2018-02-10T20:36:37.580Z,98458.75
2018-02-10T20:39:11.576Z,98458.17
2018-02-10T20:41:42.776Z,98466.91
2018-02-10T20:44:13.371Z,98462.78
2018-02-10T20:46:43.900Z,98466.70
2018-02-10T20:49:14.417Z,98466.75
2018-02-10T20:51:45.525Z,98466.33
2018-02-10T20:54:15.744Z,98466.14
2018-02-10T20:56:47.682Z,98466.84
2018-02-10T20:59:18.810Z,98463.97
2018-02-10T21:01:48.802Z,98460.39
2018-02-10T21:04:18.703Z,98459.66
2018-02-10T21:09:23.161Z,98453.98
2018-02-10T21:11:52.944Z,98453.54
2018-02-10T21:14:23.022Z,98457.84
2018-02-10T21:16:53.040Z,98452.79
2018-02-10T21:19:23.188Z,98455.33
2018-02-10T21:21:55.604Z,98455.92
2018-02-10T21:24:28.162Z,98461.03
2018-02-10T21:26:59.999Z,98455.23
2018-02-10T21:32:05.039Z,98451.08
2018-02-10T21:34:35.344Z,98448.73
2018-02-10T21:37:05.989Z,98452.19
2018-02-10T21:39:39.190Z,98447.86
2018-02-10T21:42:11.165Z,98448.98
2018-02-10T21:44:43.050Z,98445.97
2018-02-10T21:47:16.209Z,98439.92
2018-02-10T21:52:22.121Z,98445.04
2018-02-10T21:54:52.803Z,98441.62
2018-02-10T21:57:22.974Z,98438.91
2018-02-10T21:59:53.250Z,98445.77
2018-02-10T22:02:23.472Z,98428.95
2018-02-10T22:04:53.934Z,98438.98
2018-02-10T22:07:24.838Z,98434.45
2018-02-10T22:20:43.823Z,98423.66
2018-02-10T22:25:51.317Z,98419.96
2018-02-10T22:28:30.984Z,98418.91
2018-02-10T22:33:42.795Z,98411.91
2018-02-10T22:36:16.653Z,98409.67
2018-02-10T22:38:46.589Z,98408.99
2018-02-10T22:41:17.760Z,98414.85
2018-02-10T22:43:48.879Z,98403.91
2018-02-10T22:46:19.509Z,98404.41
2018-02-10T22:48:49.603Z,98399.30
2018-02-10T22:51:19.512Z,98394.56
2018-02-10T22:53:49.550Z,98405.80
2018-02-10T22:56:19.740Z,98393.55
2018-02-10T22:58:49.674Z,98400.41
2018-02-10T23:01:19.596Z,98394.00
2018-02-10T23:03:49.703Z,98391.44
2018-02-10T23:06:19.578Z,98390.36
2018-02-10T23:08:49.607Z,98390.78
2018-02-10T23:11:19.503Z,98389.73
2018-02-10T23:13:49.389Z,98384.59
2018-02-10T23:16:19.061Z,98382.45
2018-02-10T23:18:48.751Z,98380.57
2018-02-10T23:21:18.687Z,98378.55
2018-02-10T23:23:48.565Z,98376.13
2018-02-10T23:26:18.601Z,98372.06
2018-02-10T23:28:48.584Z,98374.56
2018-02-10T23:31:18.507Z,98367.18
2018-02-10T23:33:48.461Z,98366.39
2018-02-10T23:36:18.642Z,98363.50
2018-02-10T23:38:48.654Z,98358.30
2018-02-10T23:41:19.692Z,98359.34
2018-02-10T23:43:49.617Z,98348.56
2018-02-10T23:46:20.621Z,98349.59
2018-02-10T23:48:50.614Z,98349.59
2018-02-10T23:51:20.325Z,98349.41
2018-02-10T23:53:51.868Z,98344.75
2018-02-10T23:56:22.733Z,98335.94
2018-02-10T23:58:56.341Z,98336.31
